createdAt,value
2023-04-09T00:01:25.520Z,-0.43
2023-04-09T00:03:54.113Z,-0.43
2023-04-09T00:06:22.313Z,-0.41
2023-04-09T00:08:52.014Z,-0.29
2023-04-09T00:11:20.976Z,-0.24
2023-04-09T00:13:49.330Z,-0.12
2023-04-09T00:16:17.414Z,0.00
2023-04-09T00:18:45.843Z,0.02
2023-04-09T00:21:14.919Z,0.03
2023-04-09T00:23:43.149Z,0.05
2023-04-09T00:26:12.853Z,-0.01
2023-04-09T00:28:41.373Z,-0.08
2023-04-09T00:31:10.326Z,-0.15
2023-04-09T00:33:38.493Z,-0.12
2023-04-09T00:36:07.058Z,0.06
2023-04-09T00:38:35.378Z,0.11
2023-04-09T00:41:03.805Z,0.30
2023-04-09T00:43:33.392Z,0.29
2023-04-09T00:46:01.946Z,0.28
2023-04-09T00:48:30.813Z,0.27
2023-04-09T00:50:59.194Z,0.33
2023-04-09T00:53:27.643Z,0.34
2023-04-09T00:55:56.662Z,0.30
2023-04-09T00:58:25.192Z,0.30
2023-04-09T01:00:55.590Z,0.30
2023-04-09T01:03:23.808Z,0.26
2023-04-09T01:06:02.154Z,0.43
2023-04-09T01:08:39.435Z,0.38
2023-04-09T01:11:22.080Z,0.45
2023-04-09T01:14:00.155Z,0.16
2023-04-09T01:16:31.299Z,0.17
2023-04-09T01:19:04.105Z,0.33
2023-04-09T01:21:35.057Z,0.37
2023-04-09T01:24:18.960Z,0.40
2023-04-09T01:26:58.430Z,0.42
2023-04-09T01:29:36.764Z,0.34
2023-04-09T01:32:07.406Z,0.34
2023-04-09T01:34:38.654Z,0.38
2023-04-09T01:37:08.546Z,0.26
2023-04-09T01:39:38.854Z,0.21
2023-04-09T01:42:11.181Z,0.21
2023-04-09T01:44:42.055Z,0.32
2023-04-09T01:47:10.974Z,0.26
2023-04-09T01:52:13.368Z,0.10
2023-04-09T01:54:42.964Z,0.14
2023-04-09T01:57:11.312Z,0.26
2023-04-09T01:59:40.858Z,0.38
2023-04-09T02:02:13.676Z,0.42
2023-04-09T02:04:45.380Z,0.43
2023-04-09T02:07:20.103Z,0.55
2023-04-09T02:09:50.554Z,0.62
2023-04-09T02:12:20.058Z,0.55
2023-04-09T02:14:52.922Z,0.60
2023-04-09T02:17:21.280Z,0.63
2023-04-09T02:19:49.792Z,0.71
2023-04-09T02:22:18.708Z,0.64
2023-04-09T02:24:47.853Z,0.53
2023-04-09T02:27:16.287Z,0.61
2023-04-09T02:29:45.024Z,0.63
2023-04-09T02:32:15.762Z,0.62
2023-04-09T02:34:44.153Z,0.53
2023-04-09T02:37:12.611Z,0.35
2023-04-09T02:39:41.016Z,0.37
2023-04-09T02:42:09.083Z,0.35
2023-04-09T02:44:37.206Z,0.40
2023-04-09T02:47:06.157Z,0.41
2023-04-09T02:49:35.946Z,0.41
2023-04-09T02:52:04.377Z,0.43
2023-04-09T02:54:32.339Z,0.39
2023-04-09T02:57:01.112Z,0.38
2023-04-09T02:59:29.246Z,0.39
2023-04-09T03:01:57.781Z,0.33
2023-04-09T03:04:26.440Z,0.38
2023-04-09T03:06:56.141Z,0.32
2023-04-09T03:09:24.194Z,0.34
2023-04-09T03:11:52.424Z,0.39
2023-04-09T03:14:20.435Z,0.46
2023-04-09T03:16:48.846Z,0.29
2023-04-09T03:19:17.133Z,0.39
2023-04-09T03:21:46.443Z,0.16
2023-04-09T03:24:16.316Z,0.04
2023-04-09T03:26:44.774Z,-0.03
2023-04-09T03:29:14.907Z,0.11
2023-04-09T03:31:43.157Z,0.13
2023-04-09T03:34:11.449Z,0.26
2023-04-09T03:36:39.506Z,0.37
2023-04-09T03:39:22.183Z,0.43
2023-04-09T03:41:50.756Z,0.49
2023-04-09T03:44:19.916Z,0.43
2023-04-09T03:47:06.504Z,0.37
2023-04-09T03:49:36.688Z,0.40
2023-04-09T03:52:14.872Z,0.42
2023-04-09T03:54:47.759Z,0.45
2023-04-09T03:57:20.726Z,0.50
2023-04-09T03:59:51.766Z,0.53
2023-04-09T04:02:22.514Z,0.56
2023-04-09T04:05:00.149Z,0.50
2023-04-09T04:07:33.843Z,0.42
2023-04-09T04:10:12.581Z,0.33
2023-04-09T04:12:45.094Z,0.14
2023-04-09T04:15:22.765Z,-0.02
2023-04-09T04:17:55.768Z,-0.15
2023-04-09T04:20:44.813Z,-0.26
2023-04-09T04:23:15.486Z,-0.36
2023-04-09T04:25:54.864Z,-0.38
2023-04-09T04:28:29.684Z,-0.37
2023-04-09T04:30:57.945Z,-0.42
2023-04-09T04:33:40.428Z,-0.35
2023-04-09T04:36:14.329Z,-0.34
2023-04-09T04:38:51.797Z,-0.36
2023-04-09T04:41:31.897Z,-0.28
2023-04-09T04:44:13.886Z,-0.31
2023-04-09T04:47:08.156Z,-0.21
2023-04-09T04:49:36.706Z,-0.15
2023-04-09T04:52:07.872Z,-0.21
2023-04-09T04:54:39.628Z,-0.21
2023-04-09T04:57:12.070Z,-0.02
2023-04-09T04:59:42.381Z,0.00
2023-04-09T05:02:13.430Z,0.05
2023-04-09T05:05:17.895Z,0.11
2023-04-09T05:07:52.009Z,0.13
2023-04-09T05:10:22.021Z,0.25
2023-04-09T05:12:52.696Z,0.33
2023-04-09T05:15:28.927Z,0.34
2023-04-09T05:17:58.225Z,0.43
2023-04-09T05:20:28.701Z,0.53
2023-04-09T05:23:10.326Z,0.58
2023-04-09T05:25:42.801Z,0.59
2023-04-09T05:28:31.264Z,0.57
2023-04-09T05:31:13.125Z,0.66
2023-04-09T05:33:49.041Z,0.79
2023-04-09T05:36:23.128Z,0.91
2023-04-09T05:38:53.043Z,1.09
2023-04-09T05:41:21.554Z,1.17
2023-04-09T05:44:09.756Z,1.38
2023-04-09T05:46:40.631Z,1.50
2023-04-09T05:49:09.846Z,1.79
2023-04-09T05:51:39.781Z,1.91
2023-04-09T05:54:08.003Z,1.85
2023-04-09T05:56:38.866Z,1.87
2023-04-09T05:59:09.231Z,1.96
2023-04-09T06:01:37.545Z,1.95
2023-04-09T06:04:06.430Z,1.91
2023-04-09T06:06:35.820Z,2.06
2023-04-09T06:09:04.605Z,2.01
2023-04-09T06:11:33.827Z,2.03
2023-04-09T06:14:01.937Z,1.95
2023-04-09T06:16:31.990Z,2.05
2023-04-09T06:19:00.620Z,2.09
2023-04-09T06:21:29.306Z,2.09
2023-04-09T06:23:57.864Z,2.20
2023-04-09T06:26:26.250Z,2.27
2023-04-09T06:28:54.683Z,2.56
2023-04-09T06:31:23.283Z,2.76
2023-04-09T06:33:53.069Z,2.98
2023-04-09T06:36:21.721Z,3.46
2023-04-09T06:38:49.697Z,3.73
2023-04-09T06:41:17.841Z,3.92
2023-04-09T06:43:46.085Z,4.30
2023-04-09T06:46:17.304Z,4.59
2023-04-09T06:48:45.433Z,5.07
2023-04-09T06:51:16.169Z,5.10
2023-04-09T06:53:44.416Z,5.23
2023-04-09T06:56:12.917Z,5.52
2023-04-09T06:58:41.265Z,5.18
2023-04-09T07:01:09.575Z,5.28
2023-04-09T07:03:37.913Z,5.70
2023-04-09T07:06:06.089Z,9.62
2023-04-09T07:08:36.210Z,12.76
2023-04-09T07:11:04.741Z,12.63
2023-04-09T07:13:33.665Z,13.01
2023-04-09T07:16:02.027Z,12.61
2023-04-09T07:18:30.614Z,12.44
2023-04-09T07:20:59.402Z,13.20
2023-04-09T07:23:27.749Z,13.21
2023-04-09T07:25:57.423Z,13.01
2023-04-09T07:28:25.386Z,12.35
2023-04-09T07:30:54.008Z,11.88
2023-04-09T07:33:22.965Z,13.23
2023-04-09T07:35:51.302Z,12.79
2023-04-09T07:38:19.549Z,15.14
2023-04-09T07:40:47.526Z,16.48
2023-04-09T07:43:17.458Z,14.14
2023-04-09T07:45:52.927Z,13.39
2023-04-09T07:48:21.436Z,13.92
2023-04-09T07:50:49.742Z,12.20
2023-04-09T07:53:17.985Z,11.47
2023-04-09T07:55:46.704Z,10.05
2023-04-09T07:58:15.883Z,9.94
2023-04-09T08:00:45.699Z,10.47
2023-04-09T08:03:14.042Z,10.47
2023-04-09T08:05:42.539Z,10.09
2023-04-09T08:08:10.855Z,10.22
2023-04-09T08:10:39.184Z,10.12
2023-04-09T08:13:07.444Z,9.69
2023-04-09T08:15:36.911Z,9.75
2023-04-09T08:18:06.722Z,10.41
2023-04-09T08:20:34.932Z,10.86
2023-04-09T08:23:03.317Z,13.34
2023-04-09T08:25:31.552Z,12.95
2023-04-09T08:27:59.584Z,14.86
2023-04-09T08:30:27.655Z,12.97
2023-04-09T08:32:56.229Z,11.98
2023-04-09T08:35:26.123Z,10.63
2023-04-09T08:37:54.400Z,10.52
2023-04-09T08:40:22.926Z,9.81
2023-04-09T08:42:56.841Z,9.58
2023-04-09T08:45:50.093Z,9.29
2023-04-09T08:48:19.628Z,9.76
2023-04-09T08:50:49.875Z,10.75
2023-04-09T08:53:18.974Z,12.59
2023-04-09T08:55:47.826Z,14.06
2023-04-09T08:58:16.419Z,12.68
2023-04-09T09:00:44.909Z,13.03
2023-04-09T09:03:14.544Z,12.31
2023-04-09T09:05:44.127Z,10.51
2023-04-09T09:08:24.954Z,9.58
2023-04-09T09:10:53.741Z,9.46
2023-04-09T09:13:26.289Z,9.04
2023-04-09T09:15:56.812Z,8.43
2023-04-09T09:18:39.028Z,8.18
2023-04-09T09:21:14.455Z,8.14
2023-04-09T09:23:45.449Z,8.56
2023-04-09T09:26:14.867Z,8.78
2023-04-09T09:28:43.388Z,9.19
2023-04-09T09:31:13.222Z,10.36
2023-04-09T09:33:50.877Z,10.47
2023-04-09T09:36:33.657Z,11.40
2023-04-09T09:39:09.952Z,14.03
2023-04-09T09:41:38.945Z,14.82
2023-04-09T09:44:08.532Z,14.21
2023-04-09T09:46:38.841Z,13.62
2023-04-09T09:49:07.683Z,14.85
2023-04-09T09:51:39.772Z,17.71
2023-04-09T09:54:13.030Z,15.18
2023-04-09T09:56:43.546Z,12.38
2023-04-09T09:59:17.626Z,11.58
2023-04-09T10:01:48.906Z,11.28
2023-04-09T10:04:19.735Z,10.79
2023-04-09T10:06:52.148Z,10.74
2023-04-09T10:09:24.638Z,10.24
2023-04-09T10:11:53.555Z,10.41
2023-04-09T10:14:23.346Z,10.95
2023-04-09T10:16:52.515Z,11.01
2023-04-09T10:19:22.419Z,10.68
2023-04-09T10:21:55.094Z,10.64
2023-04-09T10:24:26.019Z,11.17
2023-04-09T10:26:56.173Z,11.88
2023-04-09T10:29:30.424Z,11.98
2023-04-09T10:32:06.969Z,12.19
2023-04-09T10:34:37.538Z,12.09
2023-04-09T10:37:09.661Z,12.62
2023-04-09T10:39:45.095Z,11.96
2023-04-09T10:42:16.279Z,11.65
2023-04-09T10:44:45.051Z,11.40
2023-04-09T10:47:13.730Z,11.29
2023-04-09T10:49:44.621Z,11.48
2023-04-09T10:52:13.818Z,11.55
2023-04-09T10:54:46.395Z,11.55
2023-04-09T10:57:23.044Z,10.78
2023-04-09T10:59:52.949Z,10.69
2023-04-09T11:03:09.712Z,10.53
2023-04-09T11:05:39.275Z,10.10
2023-04-09T11:08:10.838Z,10.64
2023-04-09T11:10:42.135Z,10.55
2023-04-09T11:13:13.276Z,10.57
2023-04-09T11:15:42.136Z,10.14
2023-04-09T11:18:12.107Z,10.43
2023-04-09T11:20:40.931Z,10.73
2023-04-09T11:23:09.070Z,10.56
2023-04-09T11:25:37.649Z,10.08
2023-04-09T11:28:08.576Z,10.08
2023-04-09T11:30:38.705Z,10.07
2023-04-09T11:33:08.828Z,10.28
2023-04-09T11:35:37.692Z,10.27
2023-04-09T11:38:09.815Z,10.30
2023-04-09T11:40:43.610Z,10.11
2023-04-09T11:43:13.166Z,9.59
2023-04-09T11:45:41.959Z,9.63
2023-04-09T11:48:10.313Z,10.16
2023-04-09T11:50:39.037Z,9.88
2023-04-09T11:53:18.264Z,9.95
2023-04-09T11:55:48.761Z,9.86
2023-04-09T11:58:18.866Z,10.19
2023-04-09T12:00:47.141Z,10.33
2023-04-09T12:03:17.195Z,10.90
2023-04-09T12:05:50.996Z,10.83
2023-04-09T12:08:24.421Z,11.23
2023-04-09T12:10:53.864Z,11.11
2023-04-09T12:13:33.861Z,11.26
2023-04-09T12:16:02.773Z,10.48
2023-04-09T12:18:31.014Z,10.86
2023-04-09T12:21:01.231Z,11.63
2023-04-09T12:23:31.506Z,11.46
2023-04-09T12:26:01.391Z,10.63
2023-04-09T12:28:31.329Z,10.42
2023-04-09T12:30:59.760Z,10.39
2023-04-09T12:33:28.110Z,10.35
2023-04-09T12:35:58.440Z,10.43
2023-04-09T12:38:26.917Z,10.38
2023-04-09T12:40:55.517Z,10.14
2023-04-09T12:43:23.861Z,10.57
2023-04-09T12:45:53.566Z,11.78
2023-04-09T12:48:21.868Z,12.81
2023-04-09T12:50:50.327Z,12.56
2023-04-09T12:53:18.551Z,12.10
2023-04-09T12:55:46.933Z,12.44
2023-04-09T12:58:15.464Z,12.44
2023-04-09T13:00:43.864Z,12.44
2023-04-09T13:03:16.846Z,12.75
2023-04-09T13:05:46.032Z,12.69
2023-04-09T13:08:14.048Z,13.20
2023-04-09T13:10:42.423Z,13.26
2023-04-09T13:13:13.023Z,12.68
2023-04-09T13:15:43.384Z,12.46
2023-04-09T13:18:11.885Z,12.02
2023-04-09T13:20:41.625Z,11.66
2023-04-09T13:23:09.962Z,11.00
2023-04-09T13:25:38.072Z,10.88
2023-04-09T13:28:06.601Z,11.66
2023-04-09T13:30:34.924Z,11.64
2023-04-09T13:33:03.156Z,11.37
2023-04-09T13:35:32.129Z,11.97
2023-04-09T13:38:02.304Z,12.32
2023-04-09T13:40:30.951Z,13.20
2023-04-09T13:42:59.137Z,13.87
2023-04-09T13:45:27.279Z,13.34
2023-04-09T13:47:55.340Z,13.15
2023-04-09T13:50:23.695Z,12.15
2023-04-09T13:52:51.992Z,11.87
2023-04-09T13:55:21.844Z,11.58
2023-04-09T13:57:49.883Z,11.05
2023-04-09T14:00:19.956Z,10.75
2023-04-09T14:02:48.432Z,10.74
2023-04-09T14:05:16.682Z,10.55
2023-04-09T14:07:44.923Z,10.56
2023-04-09T14:10:13.510Z,10.83
2023-04-09T14:12:43.302Z,11.13
2023-04-09T14:15:12.398Z,11.13
2023-04-09T14:17:41.227Z,11.17
2023-04-09T14:20:10.607Z,11.38
2023-04-09T14:22:40.127Z,10.72
2023-04-09T14:25:14.040Z,10.39
2023-04-09T14:27:44.847Z,10.42
2023-04-09T14:30:14.108Z,10.75
2023-04-09T14:32:43.298Z,11.07
2023-04-09T14:35:12.045Z,11.59
2023-04-09T14:37:41.148Z,11.26
2023-04-09T14:40:10.493Z,11.30
2023-04-09T14:42:39.244Z,11.18
2023-04-09T14:45:13.182Z,11.47
2023-04-09T14:47:41.606Z,11.50
2023-04-09T14:50:12.905Z,10.99
2023-04-09T14:52:41.146Z,10.77
2023-04-09T14:55:12.630Z,10.29
2023-04-09T14:57:41.880Z,10.15
2023-04-09T15:00:13.431Z,10.15
2023-04-09T15:02:42.275Z,10.19
2023-04-09T15:05:12.230Z,10.17
2023-04-09T15:07:41.106Z,10.26
2023-04-09T15:10:10.281Z,10.16
2023-04-09T15:12:38.302Z,10.30
2023-04-09T15:15:08.709Z,10.55
2023-04-09T15:17:39.153Z,11.23
2023-04-09T15:20:08.936Z,12.32
2023-04-09T15:22:37.363Z,13.45
2023-04-09T15:25:06.347Z,13.00
2023-04-09T15:27:34.504Z,11.58
2023-04-09T15:30:03.563Z,10.86
2023-04-09T15:32:32.837Z,10.42
2023-04-09T15:35:03.446Z,10.10
2023-04-09T15:37:32.204Z,10.01
2023-04-09T15:40:00.599Z,9.99
2023-04-09T15:42:36.414Z,10.06
2023-04-09T15:45:08.077Z,10.06
2023-04-09T15:47:36.458Z,10.13
2023-04-09T15:50:07.665Z,9.73
2023-04-09T15:52:36.443Z,9.57
2023-04-09T15:55:04.711Z,9.45
2023-04-09T15:57:33.411Z,9.45
2023-04-09T16:00:01.718Z,9.35
2023-04-09T16:02:34.657Z,9.20
2023-04-09T16:05:03.146Z,9.31
2023-04-09T16:07:32.996Z,9.30
2023-04-09T16:10:02.045Z,9.34
2023-04-09T16:12:30.716Z,9.23
2023-04-09T16:14:59.646Z,9.27
2023-04-09T16:17:28.631Z,9.20
2023-04-09T16:19:57.184Z,9.19
2023-04-09T16:22:25.466Z,9.04
2023-04-09T16:24:55.187Z,8.98
2023-04-09T16:27:23.298Z,8.98
2023-04-09T16:29:52.306Z,8.94
2023-04-09T16:32:21.220Z,8.91
2023-04-09T16:34:49.539Z,8.82
2023-04-09T16:37:17.927Z,8.89
2023-04-09T16:39:46.188Z,8.91
2023-04-09T16:42:15.956Z,8.94
2023-04-09T16:44:44.071Z,8.93
2023-04-09T16:47:12.506Z,8.81
2023-04-09T16:49:40.938Z,8.82
2023-04-09T16:52:09.015Z,8.86
2023-04-09T16:54:37.250Z,8.71
2023-04-09T16:57:05.444Z,8.70
2023-04-09T16:59:35.580Z,8.68
2023-04-09T17:02:07.303Z,8.60
2023-04-09T17:04:37.749Z,8.51
2023-04-09T17:07:06.282Z,8.53
2023-04-09T17:09:35.873Z,8.48
2023-04-09T17:12:04.532Z,8.47
2023-04-09T17:14:34.633Z,8.53
2023-04-09T17:17:05.543Z,8.46
2023-04-09T17:19:34.135Z,8.36
2023-04-09T17:22:02.960Z,8.38
2023-04-09T17:24:32.157Z,8.42
2023-04-09T17:27:01.059Z,8.38
2023-04-09T17:29:29.361Z,8.35
2023-04-09T17:31:57.967Z,8.33
2023-04-09T17:34:28.388Z,8.29
2023-04-09T17:37:00.245Z,8.24
2023-04-09T17:39:29.897Z,8.17
2023-04-09T17:41:58.518Z,8.21
2023-04-09T17:44:28.438Z,8.14
2023-04-09T17:46:56.526Z,8.15
2023-04-09T17:49:24.792Z,8.01
2023-04-09T17:51:55.924Z,7.93
2023-04-09T17:54:24.520Z,7.90
2023-04-09T17:56:53.269Z,7.89
2023-04-09T17:59:22.016Z,7.92
2023-04-09T18:01:50.931Z,7.80
2023-04-09T18:04:19.942Z,7.87
2023-04-09T18:06:48.685Z,7.80
2023-04-09T18:09:19.518Z,7.73
2023-04-09T18:11:49.004Z,7.70
2023-04-09T18:14:18.041Z,7.63
2023-04-09T18:16:46.457Z,7.64
2023-04-09T18:19:15.791Z,7.56
2023-04-09T18:21:45.150Z,7.58
2023-04-09T18:24:13.774Z,7.51
2023-04-09T18:26:43.794Z,7.54
2023-04-09T18:29:11.960Z,7.59
2023-04-09T18:31:40.156Z,7.51
2023-04-09T18:34:08.425Z,7.62
2023-04-09T18:36:36.544Z,7.59
2023-04-09T18:39:06.766Z,7.47
2023-04-09T18:41:34.922Z,7.37
2023-04-09T18:44:05.452Z,7.43
2023-04-09T18:46:33.825Z,7.44
2023-04-09T18:49:02.257Z,7.46
2023-04-09T18:51:32.135Z,7.44
2023-04-09T18:54:01.033Z,7.42
2023-04-09T18:56:29.979Z,7.54
2023-04-09T18:59:22.278Z,7.47
2023-04-09T19:01:52.058Z,7.41
2023-04-09T19:04:20.808Z,7.33
2023-04-09T19:06:50.207Z,7.29
2023-04-09T19:09:18.695Z,7.25
2023-04-09T19:11:47.347Z,7.18
2023-04-09T19:14:15.525Z,7.07
2023-04-09T19:16:44.843Z,7.09
2023-04-09T19:19:14.686Z,7.01
2023-04-09T19:21:43.196Z,6.97
2023-04-09T19:24:11.844Z,6.97
2023-04-09T19:26:40.454Z,6.91
2023-04-09T19:29:09.933Z,6.86
2023-04-09T19:31:38.077Z,6.87
2023-04-09T19:34:07.062Z,6.84
2023-04-09T19:36:37.004Z,6.87
2023-04-09T19:39:07.944Z,6.80
2023-04-09T19:41:37.159Z,6.82
2023-04-09T19:44:07.437Z,6.75
2023-04-09T19:46:36.609Z,6.71
2023-04-09T19:49:05.355Z,6.75
2023-04-09T19:51:33.864Z,6.76
2023-04-09T19:54:03.821Z,6.84
2023-04-09T19:56:32.982Z,6.82
2023-04-09T19:59:02.656Z,6.81
2023-04-09T20:01:31.466Z,6.80
2023-04-09T20:04:00.413Z,6.70
2023-04-09T20:06:29.135Z,6.71
2023-04-09T20:08:58.125Z,6.64
2023-04-09T20:11:28.837Z,6.67
2023-04-09T20:13:57.566Z,6.68
2023-04-09T20:16:26.365Z,6.76
2023-04-09T20:18:54.677Z,6.90
2023-04-09T20:21:23.609Z,6.80
2023-04-09T20:23:51.897Z,6.82
2023-04-09T20:26:20.376Z,6.86
2023-04-09T20:28:50.996Z,6.97
2023-04-09T20:31:20.229Z,7.11
2023-04-09T20:33:48.816Z,7.19
2023-04-09T20:36:17.651Z,7.20
2023-04-09T20:38:46.707Z,7.18
2023-04-09T20:41:15.029Z,7.20
2023-04-09T20:43:43.484Z,7.19
2023-04-09T20:46:13.838Z,7.21
2023-04-09T20:48:42.840Z,7.23
2023-04-09T20:51:12.007Z,7.21
2023-04-09T20:53:40.210Z,7.13
2023-04-09T20:56:11.527Z,7.10
2023-04-09T20:58:42.606Z,7.03
2023-04-09T21:01:11.227Z,7.06
2023-04-09T21:03:41.535Z,6.90
2023-04-09T21:06:10.100Z,6.97
2023-04-09T21:08:42.742Z,6.81
2023-04-09T21:11:11.580Z,6.76
2023-04-09T21:13:53.188Z,6.73
2023-04-09T21:16:23.658Z,6.62
2023-04-09T21:18:53.529Z,6.56
2023-04-09T21:21:21.965Z,6.38
2023-04-09T21:23:50.131Z,6.27
2023-04-09T21:26:18.398Z,6.32
2023-04-09T21:28:50.561Z,6.17
2023-04-09T21:31:19.105Z,6.05
2023-04-09T21:33:47.828Z,6.10
2023-04-09T21:36:18.254Z,6.00
2023-04-09T21:38:46.510Z,6.04
2023-04-09T21:41:14.877Z,5.92
2023-04-09T21:43:42.957Z,5.83
2023-04-09T21:46:11.089Z,5.69
2023-04-09T21:48:40.995Z,5.60
2023-04-09T21:53:41.553Z,5.68
2023-04-09T21:56:10.618Z,5.71
2023-04-09T21:58:38.903Z,5.71
2023-04-09T22:01:15.805Z,5.66
2023-04-09T22:03:51.458Z,5.68
2023-04-09T22:06:19.758Z,5.69
2023-04-09T22:08:56.166Z,5.70
2023-04-09T22:11:28.083Z,5.78
2023-04-09T22:13:57.663Z,5.75
2023-04-09T22:16:26.595Z,5.66
2023-04-09T22:18:56.596Z,5.70
2023-04-09T22:21:26.586Z,5.62
2023-04-09T22:23:56.726Z,5.52
2023-04-09T22:26:25.035Z,5.43
2023-04-09T22:28:54.832Z,5.43
2023-04-09T22:31:24.919Z,5.39
2023-04-09T22:33:53.484Z,5.48
2023-04-09T22:36:22.982Z,5.50
2023-04-09T22:38:51.974Z,5.49
2023-04-09T22:41:23.292Z,5.48
2023-04-09T22:43:52.503Z,5.47
2023-04-09T22:46:21.424Z,5.52
2023-04-09T22:48:51.675Z,5.53
2023-04-09T22:51:20.351Z,5.48
2023-04-09T22:53:48.774Z,5.32
2023-04-09T22:56:16.975Z,5.28
2023-04-09T22:58:46.627Z,5.27
2023-04-09T23:01:14.696Z,5.27
2023-04-09T23:04:08.456Z,5.26
2023-04-09T23:06:37.870Z,5.25
2023-04-09T23:09:05.996Z,5.32
2023-04-09T23:11:34.114Z,5.32
2023-04-09T23:14:03.863Z,5.26
2023-04-09T23:16:32.613Z,5.25
2023-04-09T23:19:00.993Z,5.20
2023-04-09T23:21:29.173Z,5.18
2023-04-09T23:23:57.340Z,5.22
2023-04-09T23:26:25.759Z,5.22
2023-04-09T23:28:54.193Z,5.20
2023-04-09T23:31:24.120Z,5.21
2023-04-09T23:33:53.017Z,5.21
2023-04-09T23:36:21.993Z,5.19
2023-04-09T23:38:50.526Z,5.18
2023-04-09T23:41:19.152Z,5.25
2023-04-09T23:43:47.590Z,5.19
2023-04-09T23:46:15.757Z,5.28
2023-04-09T23:48:46.851Z,5.25
2023-04-09T23:51:18.407Z,5.16
2023-04-09T23:53:46.724Z,5.07
2023-04-09T23:56:15.014Z,5.03
2023-04-09T23:58:43.683Z,4.94
